sensor_id;sensor_type;location;lat;lon;timestamp;pressure;altitude;pressure_sealevel;temperature;humidity
20009;BME280;10165;42.662;23.260;2024-01-27T00:02:07;94569.56;;;5.35;49.41
20009;BME280;10165;42.662;23.260;2024-01-27T00:04:35;94553.56;;;5.40;49.68
20009;BME280;10165;42.662;23.260;2024-01-27T00:07:03;94553.41;;;5.23;49.93
20009;BME280;10165;42.662;23.260;2024-01-27T00:09:31;94555.06;;;4.97;50.81
20009;BME280;10165;42.662;23.260;2024-01-27T00:11:58;94547.56;;;4.99;50.38
20009;BME280;10165;42.662;23.260;2024-01-27T00:14:25;94557.47;;;5.65;49.10
20009;BME280;10165;42.662;23.260;2024-01-27T00:16:51;94557.69;;;5.77;48.04
20009;BME280;10165;42.662;23.260;2024-01-27T00:19:18;94546.06;;;5.87;48.34
20009;BME280;10165;42.662;23.260;2024-01-27T00:21:45;94530.84;;;5.70;48.07
20009;BME280;10165;42.662;23.260;2024-01-27T00:24:13;94536.25;;;5.65;48.08
20009;BME280;10165;42.662;23.260;2024-01-27T00:26:40;94538.44;;;5.63;47.88
20009;BME280;10165;42.662;23.260;2024-01-27T00:29:07;94538.81;;;5.48;47.75
20009;BME280;10165;42.662;23.260;2024-01-27T00:31:34;94543.72;;;5.41;47.83
20009;BME280;10165;42.662;23.260;2024-01-27T00:34:01;94538.78;;;5.25;49.37
20009;BME280;10165;42.662;23.260;2024-01-27T00:36:28;94542.72;;;5.14;49.54
20009;BME280;10165;42.662;23.260;2024-01-27T00:38:55;94530.25;;;5.51;48.55
20009;BME280;10165;42.662;23.260;2024-01-27T00:41:21;94547.41;;;5.31;49.01
20009;BME280;10165;42.662;23.260;2024-01-27T00:43:48;94539.50;;;5.17;49.43
20009;BME280;10165;42.662;23.260;2024-01-27T00:46:15;94552.13;;;4.98;50.19
20009;BME280;10165;42.662;23.260;2024-01-27T00:48:41;94545.66;;;4.77;50.94
20009;BME280;10165;42.662;23.260;2024-01-27T00:51:08;94557.38;;;5.12;50.69
20009;BME280;10165;42.662;23.260;2024-01-27T00:53:35;94549.19;;;5.22;49.99
20009;BME280;10165;42.662;23.260;2024-01-27T00:56:02;94546.81;;;4.98;50.48
20009;BME280;10165;42.662;23.260;2024-01-27T00:58:29;94553.13;;;5.47;49.18
20009;BME280;10165;42.662;23.260;2024-01-27T01:00:56;94537.53;;;5.45;49.34
20009;BME280;10165;42.662;23.260;2024-01-27T01:03:22;94541.28;;;5.44;49.07
20009;BME280;10165;42.662;23.260;2024-01-27T01:05:49;94535.69;;;5.99;47.84
20009;BME280;10165;42.662;23.260;2024-01-27T01:08:16;94526.53;;;5.52;48.35
20009;BME280;10165;42.662;23.260;2024-01-27T01:10:43;94539.09;;;5.68;47.00
20009;BME280;10165;42.662;23.260;2024-01-27T01:13:10;94533.50;;;5.48;48.24
20009;BME280;10165;42.662;23.260;2024-01-27T01:15:37;94536.31;;;5.29;48.61
20009;BME280;10165;42.662;23.260;2024-01-27T01:18:04;94543.19;;;5.30;49.13
20009;BME280;10165;42.662;23.260;2024-01-27T01:20:31;94534.88;;;5.23;48.32
20009;BME280;10165;42.662;23.260;2024-01-27T01:22:59;94533.00;;;5.46;47.60
20009;BME280;10165;42.662;23.260;2024-01-27T01:25:25;94536.63;;;5.50;47.34
20009;BME280;10165;42.662;23.260;2024-01-27T01:27:55;94525.94;;;6.08;46.24
20009;BME280;10165;42.662;23.260;2024-01-27T01:30:21;94529.50;;;5.37;45.69
20009;BME280;10165;42.662;23.260;2024-01-27T01:32:48;94523.94;;;5.02;47.26
20009;BME280;10165;42.662;23.260;2024-01-27T01:35:15;94517.41;;;5.66;46.24
20009;BME280;10165;42.662;23.260;2024-01-27T01:37:42;94499.41;;;6.08;45.62
20009;BME280;10165;42.662;23.260;2024-01-27T01:40:09;94506.69;;;5.94;45.74
20009;BME280;10165;42.662;23.260;2024-01-27T01:42:36;94513.97;;;5.88;46.52
20009;BME280;10165;42.662;23.260;2024-01-27T01:45:02;94511.44;;;5.61;47.28
20009;BME280;10165;42.662;23.260;2024-01-27T01:47:29;94492.66;;;5.49;48.62
20009;BME280;10165;42.662;23.260;2024-01-27T01:49:57;94492.50;;;5.23;48.57
20009;BME280;10165;42.662;23.260;2024-01-27T01:52:24;94499.06;;;5.25;50.12
20009;BME280;10165;42.662;23.260;2024-01-27T01:54:51;94499.75;;;4.95;50.00
20009;BME280;10165;42.662;23.260;2024-01-27T01:57:18;94496.00;;;5.32;48.24
20009;BME280;10165;42.662;23.260;2024-01-27T01:59:45;94500.41;;;5.67;49.08
20009;BME280;10165;42.662;23.260;2024-01-27T02:02:12;94509.38;;;4.91;49.38
20009;BME280;10165;42.662;23.260;2024-01-27T02:04:42;94498.09;;;5.44;48.89
20009;BME280;10165;42.662;23.260;2024-01-27T02:07:10;94496.78;;;5.55;46.25
20009;BME280;10165;42.662;23.260;2024-01-27T02:09:36;94490.59;;;5.90;45.36
20009;BME280;10165;42.662;23.260;2024-01-27T02:12:04;94480.34;;;5.22;47.92
20009;BME280;10165;42.662;23.260;2024-01-27T02:14:31;94473.03;;;5.50;48.61
20009;BME280;10165;42.662;23.260;2024-01-27T02:16:58;94462.88;;;5.96;47.30
20009;BME280;10165;42.662;23.260;2024-01-27T02:19:24;94465.06;;;5.72;46.24
20009;BME280;10165;42.662;23.260;2024-01-27T02:21:51;94465.03;;;5.94;44.71
20009;BME280;10165;42.662;23.260;2024-01-27T02:24:18;94476.94;;;5.52;46.62
20009;BME280;10165;42.662;23.260;2024-01-27T02:26:45;94472.78;;;5.60;47.43
20009;BME280;10165;42.662;23.260;2024-01-27T02:29:12;94466.91;;;5.41;50.22
20009;BME280;10165;42.662;23.260;2024-01-27T02:31:39;94459.66;;;5.24;49.50
20009;BME280;10165;42.662;23.260;2024-01-27T02:34:06;94451.59;;;5.60;47.97
20009;BME280;10165;42.662;23.260;2024-01-27T02:36:33;94452.84;;;5.32;48.52
20009;BME280;10165;42.662;23.260;2024-01-27T02:38:59;94460.53;;;5.42;48.07
20009;BME280;10165;42.662;23.260;2024-01-27T02:41:26;94455.22;;;5.42;47.53
20009;BME280;10165;42.662;23.260;2024-01-27T02:43:54;94450.66;;;5.87;45.75
20009;BME280;10165;42.662;23.260;2024-01-27T02:46:21;94445.97;;;6.32;41.29
20009;BME280;10165;42.662;23.260;2024-01-27T02:48:47;94460.00;;;6.23;40.35
20009;BME280;10165;42.662;23.260;2024-01-27T02:51:19;94455.53;;;5.93;43.27
20009;BME280;10165;42.662;23.260;2024-01-27T02:53:47;94450.44;;;6.05;45.48
20009;BME280;10165;42.662;23.260;2024-01-27T02:56:16;94460.88;;;6.10;43.87
20009;BME280;10165;42.662;23.260;2024-01-27T02:58:42;94452.31;;;5.74;47.37
20009;BME280;10165;42.662;23.260;2024-01-27T03:01:09;94455.91;;;5.78;47.78
20009;BME280;10165;42.662;23.260;2024-01-27T03:03:36;94472.41;;;5.22;49.26
20009;BME280;10165;42.662;23.260;2024-01-27T03:06:03;94484.81;;;5.35;49.00
20009;BME280;10165;42.662;23.260;2024-01-27T03:08:31;94474.28;;;5.44;49.98
20009;BME280;10165;42.662;23.260;2024-01-27T03:10:57;94495.72;;;5.64;49.33
20009;BME280;10165;42.662;23.260;2024-01-27T03:13:24;94478.84;;;5.52;49.31
20009;BME280;10165;42.662;23.260;2024-01-27T03:15:51;94484.50;;;5.67;48.96
20009;BME280;10165;42.662;23.260;2024-01-27T03:18:19;94487.72;;;5.56;48.69
20009;BME280;10165;42.662;23.260;2024-01-27T03:20:46;94494.84;;;5.47;50.27
20009;BME280;10165;42.662;23.260;2024-01-27T03:23:13;94491.44;;;5.77;50.90
20009;BME280;10165;42.662;23.260;2024-01-27T03:25:40;94496.69;;;5.68;51.95
20009;BME280;10165;42.662;23.260;2024-01-27T03:28:06;94487.50;;;5.97;51.78
20009;BME280;10165;42.662;23.260;2024-01-27T03:30:33;94481.81;;;6.12;51.20
20009;BME280;10165;42.662;23.260;2024-01-27T03:33:00;94476.78;;;6.58;52.36
20009;BME280;10165;42.662;23.260;2024-01-27T03:35:27;94478.59;;;6.32;55.06
20009;BME280;10165;42.662;23.260;2024-01-27T03:37:53;94470.34;;;5.72;56.78
20009;BME280;10165;42.662;23.260;2024-01-27T03:40:20;94464.44;;;6.06;56.29
20009;BME280;10165;42.662;23.260;2024-01-27T03:42:47;94461.47;;;5.99;56.88
20009;BME280;10165;42.662;23.260;2024-01-27T03:45:14;94461.09;;;5.61;58.28
20009;BME280;10165;42.662;23.260;2024-01-27T03:47:40;94458.91;;;5.85;57.96
20009;BME280;10165;42.662;23.260;2024-01-27T03:50:07;94444.91;;;5.62;58.64
20009;BME280;10165;42.662;23.260;2024-01-27T03:52:34;94438.69;;;5.14;60.37
20009;BME280;10165;42.662;23.260;2024-01-27T03:55:02;94448.28;;;5.23;59.92
20009;BME280;10165;42.662;23.260;2024-01-27T03:57:28;94446.88;;;4.81;60.80
20009;BME280;10165;42.662;23.260;2024-01-27T03:59:55;94450.50;;;4.86;61.04
20009;BME280;10165;42.662;23.260;2024-01-27T04:02:22;94446.50;;;4.74;62.10
20009;BME280;10165;42.662;23.260;2024-01-27T04:04:49;94448.09;;;4.62;63.31
20009;BME280;10165;42.662;23.260;2024-01-27T04:07:16;94458.34;;;4.41;63.84
20009;BME280;10165;42.662;23.260;2024-01-27T04:09:43;94452.59;;;4.75;63.50
20009;BME280;10165;42.662;23.260;2024-01-27T04:12:10;94451.88;;;4.33;65.02
20009;BME280;10165;42.662;23.260;2024-01-27T04:14:36;94436.94;;;5.32;63.42
20009;BME280;10165;42.662;23.260;2024-01-27T04:17:03;94432.56;;;5.27;63.89
20009;BME280;10165;42.662;23.260;2024-01-27T04:19:30;94443.09;;;4.74;64.85
20009;BME280;10165;42.662;23.260;2024-01-27T04:21:57;94435.13;;;4.52;65.84
20009;BME280;10165;42.662;23.260;2024-01-27T04:24:23;94448.34;;;4.38;66.31
20009;BME280;10165;42.662;23.260;2024-01-27T04:26:50;94438.28;;;4.26;66.92
20009;BME280;10165;42.662;23.260;2024-01-27T04:29:18;94449.16;;;4.25;66.37
20009;BME280;10165;42.662;23.260;2024-01-27T04:31:44;94437.59;;;4.34;66.85
20009;BME280;10165;42.662;23.260;2024-01-27T04:34:11;94442.91;;;4.93;66.09
20009;BME280;10165;42.662;23.260;2024-01-27T04:36:38;94455.38;;;5.14;65.38
20009;BME280;10165;42.662;23.260;2024-01-27T04:39:05;94455.47;;;4.87;66.15
20009;BME280;10165;42.662;23.260;2024-01-27T04:41:31;94448.91;;;4.85;66.71
20009;BME280;10165;42.662;23.260;2024-01-27T04:43:58;94444.91;;;4.51;66.50
20009;BME280;10165;42.662;23.260;2024-01-27T04:46:25;94445.56;;;4.57;66.86
20009;BME280;10165;42.662;23.260;2024-01-27T04:48:52;94439.06;;;4.41;68.33
20009;BME280;10165;42.662;23.260;2024-01-27T04:51:19;94439.66;;;5.18;67.18
20009;BME280;10165;42.662;23.260;2024-01-27T04:53:46;94447.91;;;5.16;65.91
20009;BME280;10165;42.662;23.260;2024-01-27T04:56:13;94449.06;;;5.02;66.57
20009;BME280;10165;42.662;23.260;2024-01-27T04:58:40;94445.28;;;4.94;67.53
20009;BME280;10165;42.662;23.260;2024-01-27T05:01:07;94453.66;;;5.41;66.81
20009;BME280;10165;42.662;23.260;2024-01-27T05:03:34;94462.06;;;5.12;68.02
20009;BME280;10165;42.662;23.260;2024-01-27T05:06:00;94449.41;;;4.87;68.38
20009;BME280;10165;42.662;23.260;2024-01-27T05:08:28;94463.00;;;4.94;67.66
20009;BME280;10165;42.662;23.260;2024-01-27T05:10:54;94464.34;;;5.05;67.94
20009;BME280;10165;42.662;23.260;2024-01-27T05:13:24;94455.00;;;5.07;68.33
20009;BME280;10165;42.662;23.260;2024-01-27T05:15:51;94463.28;;;5.06;68.39
20009;BME280;10165;42.662;23.260;2024-01-27T05:18:18;94469.22;;;5.11;69.59
20009;BME280;10165;42.662;23.260;2024-01-27T05:20:45;94475.47;;;4.79;70.14
20009;BME280;10165;42.662;23.260;2024-01-27T05:23:12;94465.81;;;4.75;70.85
20009;BME280;10165;42.662;23.260;2024-01-27T05:25:38;94464.94;;;5.24;69.82
20009;BME280;10165;42.662;23.260;2024-01-27T05:28:06;94458.91;;;5.54;69.90
20009;BME280;10165;42.662;23.260;2024-01-27T05:30:32;94454.41;;;5.33;70.86
20009;BME280;10165;42.662;23.260;2024-01-27T05:32:59;94457.59;;;5.43;69.99
20009;BME280;10165;42.662;23.260;2024-01-27T05:35:27;94464.63;;;5.25;70.96
20009;BME280;10165;42.662;23.260;2024-01-27T05:37:53;94464.50;;;5.30;70.95
20009;BME280;10165;42.662;23.260;2024-01-27T05:40:20;94473.72;;;5.33;70.18
20009;BME280;10165;42.662;23.260;2024-01-27T05:42:47;94469.56;;;5.18;70.58
20009;BME280;10165;42.662;23.260;2024-01-27T05:45:15;94473.97;;;5.23;70.80
20009;BME280;10165;42.662;23.260;2024-01-27T05:47:42;94474.38;;;5.39;70.79
20009;BME280;10165;42.662;23.260;2024-01-27T05:50:09;94478.47;;;5.22;70.90
20009;BME280;10165;42.662;23.260;2024-01-27T05:52:36;94481.31;;;5.04;72.04
20009;BME280;10165;42.662;23.260;2024-01-27T05:55:03;94495.31;;;5.49;71.17
20009;BME280;10165;42.662;23.260;2024-01-27T05:57:33;94485.25;;;5.37;71.73
20009;BME280;10165;42.662;23.260;2024-01-27T06:00:00;94496.53;;;5.43;71.48
20009;BME280;10165;42.662;23.260;2024-01-27T06:02:27;94490.38;;;5.56;71.31
20009;BME280;10165;42.662;23.260;2024-01-27T06:04:53;94500.19;;;5.33;71.21
20009;BME280;10165;42.662;23.260;2024-01-27T06:07:20;94492.19;;;5.47;71.17
20009;BME280;10165;42.662;23.260;2024-01-27T06:09:47;94506.22;;;5.69;70.09
20009;BME280;10165;42.662;23.260;2024-01-27T06:12:14;94518.50;;;5.65;70.69
20009;BME280;10165;42.662;23.260;2024-01-27T06:14:41;94512.03;;;5.80;69.90
20009;BME280;10165;42.662;23.260;2024-01-27T06:17:08;94508.31;;;5.37;71.61
20009;BME280;10165;42.662;23.260;2024-01-27T06:19:35;94515.06;;;5.43;72.37
20009;BME280;10165;42.662;23.260;2024-01-27T06:22:02;94512.31;;;5.48;71.55
20009;BME280;10165;42.662;23.260;2024-01-27T06:24:32;94531.31;;;5.94;70.25
20009;BME280;10165;42.662;23.260;2024-01-27T06:26:59;94521.94;;;5.88;70.58
20009;BME280;10165;42.662;23.260;2024-01-27T06:29:26;94523.88;;;5.83;70.70
20009;BME280;10165;42.662;23.260;2024-01-27T06:31:53;94530.97;;;5.65;71.15
20009;BME280;10165;42.662;23.260;2024-01-27T06:34:20;94538.06;;;5.34;71.97
20009;BME280;10165;42.662;23.260;2024-01-27T06:36:47;94552.81;;;5.48;72.02
20009;BME280;10165;42.662;23.260;2024-01-27T06:39:14;94557.34;;;5.70;70.55
20009;BME280;10165;42.662;23.260;2024-01-27T06:41:40;94558.97;;;5.57;70.82
20009;BME280;10165;42.662;23.260;2024-01-27T06:44:07;94560.47;;;5.94;69.73
20009;BME280;10165;42.662;23.260;2024-01-27T06:46:34;94557.38;;;5.56;71.06
20009;BME280;10165;42.662;23.260;2024-01-27T06:49:01;94561.59;;;5.35;71.55
20009;BME280;10165;42.662;23.260;2024-01-27T06:51:28;94571.16;;;5.22;71.96
20009;BME280;10165;42.662;23.260;2024-01-27T06:53:55;94576.53;;;5.31;71.72
20009;BME280;10165;42.662;23.260;2024-01-27T06:56:22;94573.97;;;5.40;71.26
20009;BME280;10165;42.662;23.260;2024-01-27T06:58:48;94579.66;;;5.33;71.29
20009;BME280;10165;42.662;23.260;2024-01-27T07:01:16;94570.25;;;5.27;70.38
20009;BME280;10165;42.662;23.260;2024-01-27T07:03:43;94574.66;;;5.76;69.07
20009;BME280;10165;42.662;23.260;2024-01-27T07:06:11;94553.47;;;5.54;68.49
20009;BME280;10165;42.662;23.260;2024-01-27T07:08:38;94573.59;;;5.77;68.58
20009;BME280;10165;42.662;23.260;2024-01-27T07:11:05;94565.16;;;5.75;68.55
20009;BME280;10165;42.662;23.260;2024-01-27T07:13:32;94568.78;;;6.01;66.87
20009;BME280;10165;42.662;23.260;2024-01-27T07:15:59;94572.63;;;5.73;67.90
20009;BME280;10165;42.662;23.260;2024-01-27T07:18:25;94586.50;;;5.70;67.91
20009;BME280;10165;42.662;23.260;2024-01-27T07:20:53;94580.28;;;5.52;67.94
20009;BME280;10165;42.662;23.260;2024-01-27T07:23:21;94586.91;;;5.86;67.67
20009;BME280;10165;42.662;23.260;2024-01-27T07:25:48;94598.00;;;5.88;66.67
20009;BME280;10165;42.662;23.260;2024-01-27T07:28:15;94601.91;;;5.68;66.93
20009;BME280;10165;42.662;23.260;2024-01-27T07:30:42;94611.75;;;5.90;65.46
20009;BME280;10165;42.662;23.260;2024-01-27T07:33:09;94618.41;;;5.65;64.66
20009;BME280;10165;42.662;23.260;2024-01-27T07:35:36;94642.81;;;5.40;64.85
20009;BME280;10165;42.662;23.260;2024-01-27T07:38:03;94658.91;;;5.43;64.54
20009;BME280;10165;42.662;23.260;2024-01-27T07:40:31;94685.63;;;5.69;64.11
20009;BME280;10165;42.662;23.260;2024-01-27T07:42:59;94683.06;;;5.28;64.75
20009;BME280;10165;42.662;23.260;2024-01-27T07:45:25;94693.25;;;5.35;64.41
20009;BME280;10165;42.662;23.260;2024-01-27T07:47:52;94695.41;;;5.19;63.55
20009;BME280;10165;42.662;23.260;2024-01-27T07:50:19;94703.81;;;5.48;63.64
20009;BME280;10165;42.662;23.260;2024-01-27T07:52:46;94702.94;;;5.53;64.01
20009;BME280;10165;42.662;23.260;2024-01-27T07:55:12;94703.53;;;5.50;63.46
20009;BME280;10165;42.662;23.260;2024-01-27T07:57:39;94689.22;;;5.51;63.04
20009;BME280;10165;42.662;23.260;2024-01-27T08:00:07;94700.19;;;5.58;62.91
20009;BME280;10165;42.662;23.260;2024-01-27T08:02:34;94708.22;;;5.53;63.04
20009;BME280;10165;42.662;23.260;2024-01-27T08:05:00;94703.75;;;5.26;63.98
20009;BME280;10165;42.662;23.260;2024-01-27T08:07:29;94696.38;;;5.37;63.55
20009;BME280;10165;42.662;23.260;2024-01-27T08:09:56;94708.47;;;5.15;63.46
20009;BME280;10165;42.662;23.260;2024-01-27T08:12:25;94714.66;;;5.24;63.46
20009;BME280;10165;42.662;23.260;2024-01-27T08:14:52;94711.47;;;5.50;62.31
20009;BME280;10165;42.662;23.260;2024-01-27T08:17:20;94713.84;;;5.38;61.70
20009;BME280;10165;42.662;23.260;2024-01-27T08:19:47;94723.53;;;5.56;60.38
20009;BME280;10165;42.662;23.260;2024-01-27T08:22:14;94683.78;;;5.56;60.59
20009;BME280;10165;42.662;23.260;2024-01-27T08:24:41;94685.16;;;5.67;60.18
20009;BME280;10165;42.662;23.260;2024-01-27T08:27:08;94675.75;;;5.83;59.01
20009;BME280;10165;42.662;23.260;2024-01-27T08:29:35;94700.56;;;6.01;58.77
20009;BME280;10165;42.662;23.260;2024-01-27T08:32:01;94710.16;;;6.10;58.29
20009;BME280;10165;42.662;23.260;2024-01-27T08:34:28;94704.22;;;5.91;58.87
20009;BME280;10165;42.662;23.260;2024-01-27T08:37:01;94674.53;;;6.03;58.75
20009;BME280;10165;42.662;23.260;2024-01-27T08:39:28;94680.88;;;5.79;60.22
20009;BME280;10165;42.662;23.260;2024-01-27T08:41:55;94679.41;;;5.87;59.75
20009;BME280;10165;42.662;23.260;2024-01-27T08:44:22;94703.63;;;5.45;60.46
20009;BME280;10165;42.662;23.260;2024-01-27T08:46:49;94689.06;;;5.56;60.47
20009;BME280;10165;42.662;23.260;2024-01-27T08:49:16;94696.66;;;5.85;60.01
20009;BME280;10165;42.662;23.260;2024-01-27T08:51:43;94688.88;;;6.02;59.51
20009;BME280;10165;42.662;23.260;2024-01-27T08:54:09;94692.84;;;6.35;59.54
20009;BME280;10165;42.662;23.260;2024-01-27T08:56:39;94698.28;;;6.08;59.13
20009;BME280;10165;42.662;23.260;2024-01-27T08:59:07;94687.56;;;6.66;57.59
20009;BME280;10165;42.662;23.260;2024-01-27T09:01:34;94675.78;;;6.50;57.48
20009;BME280;10165;42.662;23.260;2024-01-27T09:04:00;94692.38;;;6.33;58.12
20009;BME280;10165;42.662;23.260;2024-01-27T09:06:27;94689.34;;;6.48;57.20
20009;BME280;10165;42.662;23.260;2024-01-27T09:08:57;94689.81;;;6.81;56.48
20009;BME280;10165;42.662;23.260;2024-01-27T09:11:24;94709.59;;;6.44;56.92
20009;BME280;10165;42.662;23.260;2024-01-27T09:13:56;94714.97;;;6.31;57.20
20009;BME280;10165;42.662;23.260;2024-01-27T09:16:23;94706.06;;;6.27;57.94
20009;BME280;10165;42.662;23.260;2024-01-27T09:18:50;94701.97;;;6.43;57.57
20009;BME280;10165;42.662;23.260;2024-01-27T09:21:18;94699.53;;;6.10;58.19
20009;BME280;10165;42.662;23.260;2024-01-27T09:23:47;94703.69;;;6.25;58.78
20009;BME280;10165;42.662;23.260;2024-01-27T09:26:14;94703.16;;;6.37;57.78
20009;BME280;10165;42.662;23.260;2024-01-27T09:28:41;94686.97;;;5.80;59.46
20009;BME280;10165;42.662;23.260;2024-01-27T09:31:10;94686.72;;;6.04;59.42
20009;BME280;10165;42.662;23.260;2024-01-27T09:33:37;94675.50;;;6.60;57.95
20009;BME280;10165;42.662;23.260;2024-01-27T09:36:04;94668.66;;;6.59;57.40
20009;BME280;10165;42.662;23.260;2024-01-27T09:38:31;94674.13;;;6.32;58.29
20009;BME280;10165;42.662;23.260;2024-01-27T09:40:58;94651.94;;;6.28;59.26
20009;BME280;10165;42.662;23.260;2024-01-27T09:43:28;94651.88;;;6.50;58.32
20009;BME280;10165;42.662;23.260;2024-01-27T09:45:55;94645.63;;;6.46;57.98
20009;BME280;10165;42.662;23.260;2024-01-27T09:48:25;94645.84;;;6.58;58.62
20009;BME280;10165;42.662;23.260;2024-01-27T09:50:53;94674.28;;;6.35;58.63
20009;BME280;10165;42.662;23.260;2024-01-27T09:53:21;94666.72;;;6.51;57.82
20009;BME280;10165;42.662;23.260;2024-01-27T09:55:48;94687.72;;;5.94;59.43
20009;BME280;10165;42.662;23.260;2024-01-27T09:58:15;94702.06;;;6.38;58.28
20009;BME280;10165;42.662;23.260;2024-01-27T10:00:42;94716.25;;;6.11;58.89
20009;BME280;10165;42.662;23.260;2024-01-27T10:03:09;94731.06;;;5.90;59.63
20009;BME280;10165;42.662;23.260;2024-01-27T10:05:37;94715.94;;;5.90;59.89
20009;BME280;10165;42.662;23.260;2024-01-27T10:08:06;94721.72;;;5.78;59.58
20009;BME280;10165;42.662;23.260;2024-01-27T10:10:35;94713.09;;;5.73;60.28
20009;BME280;10165;42.662;23.260;2024-01-27T10:13:03;94720.44;;;5.90;60.07
20009;BME280;10165;42.662;23.260;2024-01-27T10:15:30;94726.41;;;6.17;59.95
20009;BME280;10165;42.662;23.260;2024-01-27T10:18:07;94734.63;;;5.58;60.25
20009;BME280;10165;42.662;23.260;2024-01-27T10:20:34;94734.94;;;5.43;60.82
20009;BME280;10165;42.662;23.260;2024-01-27T10:23:12;94738.28;;;5.84;59.80
20009;BME280;10165;42.662;23.260;2024-01-27T10:25:39;94720.69;;;5.66;60.67
20009;BME280;10165;42.662;23.260;2024-01-27T10:28:07;94741.88;;;5.66;60.02
20009;BME280;10165;42.662;23.260;2024-01-27T10:30:35;94739.41;;;5.56;60.33
20009;BME280;10165;42.662;23.260;2024-01-27T10:33:02;94771.03;;;5.66;60.45
20009;BME280;10165;42.662;23.260;2024-01-27T10:35:29;94758.00;;;5.28;60.84
20009;BME280;10165;42.662;23.260;2024-01-27T10:37:56;94776.25;;;5.44;60.76
20009;BME280;10165;42.662;23.260;2024-01-27T10:40:25;94755.44;;;5.37;60.77
20009;BME280;10165;42.662;23.260;2024-01-27T10:43:07;94759.31;;;5.81;59.89
20009;BME280;10165;42.662;23.260;2024-01-27T10:45:39;94766.81;;;6.37;59.36
20009;BME280;10165;42.662;23.260;2024-01-27T10:48:10;94760.16;;;5.40;60.48
20009;BME280;10165;42.662;23.260;2024-01-27T10:50:39;94780.03;;;5.65;60.49
20009;BME280;10165;42.662;23.260;2024-01-27T10:53:24;94786.44;;;5.23;60.83
20009;BME280;10165;42.662;23.260;2024-01-27T10:55:57;94774.06;;;5.46;60.62
20009;BME280;10165;42.662;23.260;2024-01-27T10:58:25;94789.78;;;5.42;61.35
20009;BME280;10165;42.662;23.260;2024-01-27T11:00:53;94782.31;;;5.17;62.08
20009;BME280;10165;42.662;23.260;2024-01-27T11:03:22;94794.66;;;4.94;62.88
20009;BME280;10165;42.662;23.260;2024-01-27T11:05:51;94781.91;;;4.96;63.39
20009;BME280;10165;42.662;23.260;2024-01-27T11:08:19;94779.44;;;5.68;60.76
20009;BME280;10165;42.662;23.260;2024-01-27T11:10:46;94792.91;;;5.58;61.24
20009;BME280;10165;42.662;23.260;2024-01-27T11:13:13;94770.94;;;5.30;61.19
20009;BME280;10165;42.662;23.260;2024-01-27T11:15:51;94779.84;;;5.07;62.24
20009;BME280;10165;42.662;23.260;2024-01-27T11:18:19;94783.28;;;4.94;62.82
20009;BME280;10165;42.662;23.260;2024-01-27T11:20:46;94773.69;;;5.11;62.81
20009;BME280;10165;42.662;23.260;2024-01-27T11:23:13;94773.69;;;5.25;62.77
20009;BME280;10165;42.662;23.260;2024-01-27T11:25:43;94778.00;;;5.07;63.08
20009;BME280;10165;42.662;23.260;2024-01-27T11:28:11;94768.78;;;5.18;63.26
20009;BME280;10165;42.662;23.260;2024-01-27T11:30:46;94773.09;;;5.01;63.63
20009;BME280;10165;42.662;23.260;2024-01-27T11:33:14;94765.25;;;5.09;63.05
20009;BME280;10165;42.662;23.260;2024-01-27T11:35:41;94776.69;;;4.91;63.63
20009;BME280;10165;42.662;23.260;2024-01-27T11:38:08;94774.22;;;4.81;63.93
20009;BME280;10165;42.662;23.260;2024-01-27T11:40:46;94780.44;;;4.90;64.21
20009;BME280;10165;42.662;23.260;2024-01-27T11:43:13;94781.91;;;4.96;63.84
20009;BME280;10165;42.662;23.260;2024-01-27T11:45:41;94783.22;;;4.80;63.45
20009;BME280;10165;42.662;23.260;2024-01-27T11:48:07;94795.28;;;4.72;63.62
20009;BME280;10165;42.662;23.260;2024-01-27T11:50:35;94780.94;;;5.06;62.84
20009;BME280;10165;42.662;23.260;2024-01-27T11:53:04;94785.25;;;5.15;61.74
20009;BME280;10165;42.662;23.260;2024-01-27T11:55:34;94774.69;;;5.43;61.10
20009;BME280;10165;42.662;23.260;2024-01-27T11:58:00;94785.19;;;6.11;59.36
20009;BME280;10165;42.662;23.260;2024-01-27T12:00:27;94804.31;;;5.58;60.29
20009;BME280;10165;42.662;23.260;2024-01-27T12:02:56;94801.06;;;5.48;60.99
20009;BME280;10165;42.662;23.260;2024-01-27T12:05:24;94824.84;;;4.93;61.83
20009;BME280;10165;42.662;23.260;2024-01-27T12:07:51;94817.75;;;4.89;62.06
20009;BME280;10165;42.662;23.260;2024-01-27T12:10:18;94806.94;;;5.45;60.90
20009;BME280;10165;42.662;23.260;2024-01-27T12:12:46;94804.97;;;5.77;60.28
20009;BME280;10165;42.662;23.260;2024-01-27T12:15:13;94813.13;;;5.81;59.99
20009;BME280;10165;42.662;23.260;2024-01-27T12:17:42;94816.16;;;5.61;59.74
20009;BME280;10165;42.662;23.260;2024-01-27T12:20:16;94816.75;;;5.71;58.91
20009;BME280;10165;42.662;23.260;2024-01-27T12:22:45;94815.25;;;5.79;58.23
20009;BME280;10165;42.662;23.260;2024-01-27T12:25:12;94805.38;;;5.44;58.90
20009;BME280;10165;42.662;23.260;2024-01-27T12:27:41;94804.28;;;5.45;58.66
20009;BME280;10165;42.662;23.260;2024-01-27T12:30:09;94832.63;;;5.17;59.39
20009;BME280;10165;42.662;23.260;2024-01-27T12:32:36;94807.25;;;5.43;59.36
20009;BME280;10165;42.662;23.260;2024-01-27T12:35:07;94819.00;;;5.37;58.70
20009;BME280;10165;42.662;23.260;2024-01-27T12:37:35;94812.53;;;5.57;58.43
20009;BME280;10165;42.662;23.260;2024-01-27T12:40:17;94807.75;;;5.59;58.27
20009;BME280;10165;42.662;23.260;2024-01-27T12:42:49;94810.97;;;5.28;58.75
20009;BME280;10165;42.662;23.260;2024-01-27T12:45:16;94817.31;;;5.00;59.92
20009;BME280;10165;42.662;23.260;2024-01-27T12:47:43;94814.44;;;4.97;60.09
20009;BME280;10165;42.662;23.260;2024-01-27T12:50:10;94810.78;;;5.25;59.92
20009;BME280;10165;42.662;23.260;2024-01-27T12:52:37;94809.59;;;5.45;58.95
20009;BME280;10165;42.662;23.260;2024-01-27T12:55:05;94803.53;;;5.44;58.54
20009;BME280;10165;42.662;23.260;2024-01-27T12:57:32;94818.41;;;5.67;58.40
20009;BME280;10165;42.662;23.260;2024-01-27T13:00:01;94831.00;;;5.62;57.82
20009;BME280;10165;42.662;23.260;2024-01-27T13:02:30;94829.13;;;5.62;57.18